Time;durP1;ratioP1;P1;durP2;ratioP2;P2;SDS_P1;SDS_P2;PMS_P1;PMS_P2;Temp;Humidity;BMP_temperature;BMP_pressure;BME280_temperature;BME280_humidity;BME280_pressure;Samples;Min_cycle;Max_cycle;Signal;HPM_P1;HPM_P2
2022/06/15 00:00:06;;;;;;;6.25;4.85;;;14.30;99.90;;;;;;4980051;28;20054;-84
2022/06/15 00:02:31;;;;;;;8.27;5.45;;;14.20;99.90;;;;;;4979600;28;20041;-85
2022/06/15 00:04:57;;;;;;;6.95;4.75;;;14.20;99.90;;;;;;4981745;28;20393;-84
2022/06/15 00:07:22;;;;;;;6.97;5.35;;;14.20;99.90;;;;;;4980593;28;20104;-85
2022/06/15 00:09:48;;;;;;;8.73;5.70;;;14.10;99.90;;;;;;4980326;28;20073;-85
2022/06/15 00:12:14;;;;;;;6.07;4.28;;;14.10;99.90;;;;;;4981124;28;20047;-84
2022/06/15 00:14:39;;;;;;;6.35;5.75;;;14.10;99.90;;;;;;4981606;28;20065;-85
2022/06/15 00:17:05;;;;;;;7.43;5.28;;;14.10;99.90;;;;;;4980121;28;20481;-85
2022/06/15 00:19:31;;;;;;;5.88;5.25;;;14.10;99.90;;;;;;4981563;28;20042;-82
2022/06/15 00:21:56;;;;;;;6.68;5.25;;;14.00;99.90;;;;;;4981977;28;20129;-85
2022/06/15 00:24:22;;;;;;;8.18;5.63;;;14.00;99.90;;;;;;4981225;28;20085;-85
2022/06/15 00:26:47;;;;;;;8.88;5.63;;;14.00;99.90;;;;;;4996354;28;20129;-85
2022/06/15 00:29:13;;;;;;;6.38;5.55;;;14.00;99.90;;;;;;5000045;28;20092;-85
2022/06/15 00:31:39;;;;;;;5.97;5.32;;;14.00;99.90;;;;;;4998830;28;20046;-85
2022/06/15 00:34:05;;;;;;;7.65;4.70;;;13.90;99.90;;;;;;5000425;28;20038;-86
2022/06/15 00:36:31;;;;;;;10.88;5.07;;;13.90;99.90;;;;;;4999493;28;20038;-82
2022/06/15 00:38:58;;;;;;;8.68;5.43;;;13.80;99.90;;;;;;5000830;28;20048;-85
2022/06/15 00:41:27;;;;;;;11.57;5.90;;;13.90;99.90;;;;;;5000872;28;20084;-85
2022/06/15 00:43:56;;;;;;;6.97;4.93;;;13.80;99.90;;;;;;4999643;28;20042;-85
2022/06/15 00:46:23;;;;;;;6.03;5.18;;;13.70;99.90;;;;;;5002306;28;20034;-85
2022/06/15 00:49:27;;;;;;;9.23;5.38;;;13.80;99.90;;;;;;5002276;28;20057;-85
2022/06/15 00:51:58;;;;;;;10.55;4.85;;;13.80;99.90;;;;;;4954377;28;20558;-85
2022/06/15 00:54:24;;;;;;;6.07;5.15;;;13.70;99.90;;;;;;5002131;28;20057;-85
2022/06/15 00:56:51;;;;;;;4.82;4.28;;;13.70;99.90;;;;;;5004339;28;20049;-85
2022/06/15 00:59:30;;;;;;;9.98;4.88;;;13.70;99.90;;;;;;5003711;28;20425;-85
2022/06/15 01:01:56;;;;;;;10.73;5.75;;;13.70;99.90;;;;;;5002247;28;20049;-85
2022/06/15 01:04:24;;;;;;;5.90;5.40;;;13.60;99.90;;;;;;5025900;23;20046;-85
2022/06/15 01:07:07;;;;;;;9.45;5.55;;;13.60;99.90;;;;;;5020804;28;20045;-85
2022/06/15 01:09:45;;;;;;;4.93;4.40;;;13.60;99.90;;;;;;5022249;28;20045;-85
2022/06/15 01:13:09;;;;;;;9.65;5.03;;;13.50;99.90;;;;;;5022590;28;20466;-85
2022/06/15 01:15:56;;;;;;;5.50;5.00;;;13.50;99.90;;;;;;4965451;28;20073;-85
2022/06/15 01:18:35;;;;;;;6.10;5.20;;;13.50;99.90;;;;;;4980489;28;20076;-85
2022/06/15 01:21:21;;;;;;;13.27;5.88;;;13.50;99.90;;;;;;5010894;28;20049;-81
2022/06/15 01:24:05;;;;;;;5.18;4.68;;;13.50;99.90;;;;;;5023732;28;20044;-85
2022/06/15 01:27:10;;;;;;;9.82;5.97;;;13.40;99.90;;;;;;5006768;28;20452;-86
2022/06/15 01:30:14;;;;;;;5.70;4.32;;;13.50;99.90;;;;;;5002366;28;20069;-86
2022/06/15 01:33:10;;;;;;;5.78;5.18;;;13.50;99.90;;;;;;4971319;28;20054;-85
2022/06/15 01:36:06;;;;;;;8.05;4.72;;;13.40;99.90;;;;;;5003517;28;20485;-85
2022/06/15 01:38:38;;;;;;;7.38;5.72;;;13.40;99.90;;;;;;5002244;28;20073;-85
2022/06/15 01:41:15;;;;;;;5.78;5.22;;;13.40;99.90;;;;;;5002031;28;20573;-84
2022/06/15 01:44:08;;;;;;;9.00;5.25;;;13.40;99.90;;;;;;5003128;28;20038;-85
2022/06/15 01:46:38;;;;;;;5.95;5.03;;;13.40;99.90;;;;;;5001234;28;20041;-85
2022/06/15 01:49:05;;;;;;;5.75;4.90;;;13.40;99.90;;;;;;5003092;28;20498;-85
2022/06/15 01:51:33;;;;;;;6.25;4.22;;;13.40;99.90;;;;;;5003571;28;20065;-84
2022/06/15 01:54:07;;;;;;;6.93;5.45;;;13.40;99.90;;;;;;5002014;28;20141;-85
2022/06/15 01:56:45;;;;;;;6.07;5.45;;;13.40;99.90;;;;;;5001383;28;20049;-85
2022/06/15 01:59:35;;;;;;;6.70;5.47;;;13.40;99.90;;;;;;4982759;28;20441;-85
2022/06/15 02:02:11;;;;;;;10.55;6.18;;;13.40;99.90;;;;;;4982766;28;20509;-86
2022/06/15 02:05:03;;;;;;;6.68;5.20;;;13.40;99.90;;;;;;4981958;28;20141;-85
2022/06/15 02:07:49;;;;;;;6.43;4.95;;;13.30;99.90;;;;;;4983996;28;20087;-85
2022/06/15 02:10:39;;;;;;;6.43;4.32;;;13.30;99.90;;;;;;4983198;28;20066;-85
2022/06/15 02:13:19;;;;;;;5.20;4.60;;;13.30;99.90;;;;;;4981778;28;20058;-85
2022/06/15 02:15:49;;;;;;;4.47;4.15;;;13.30;99.90;;;;;;4982300;28;20054;-85
2022/06/15 02:18:19;;;;;;;5.10;4.35;;;13.30;99.90;;;;;;4980891;28;20097;-85
2022/06/15 02:21:09;;;;;;;6.47;4.43;;;13.30;99.90;;;;;;4982996;28;20493;-85
2022/06/15 02:23:38;;;;;;;6.70;4.72;;;13.20;99.90;;;;;;4982954;28;20046;-85
2022/06/15 02:26:05;;;;;;;8.73;5.18;;;13.20;99.90;;;;;;4994793;28;20049;-86
2022/06/15 02:28:40;;;;;;;9.60;6.35;;;13.20;99.90;;;;;;5002773;28;20596;-87
2022/06/15 02:31:06;;;;;;;6.55;5.20;;;13.20;99.90;;;;;;4984737;28;20088;-86
2022/06/15 02:33:37;;;;;;;8.00;4.95;;;13.20;99.90;;;;;;5001599;28;20052;-85
2022/06/15 02:36:04;;;;;;;8.73;5.53;;;13.20;99.90;;;;;;5001993;28;20049;-85
2022/06/15 02:38:30;;;;;;;6.78;4.35;;;13.20;99.90;;;;;;5002851;28;20049;-86
2022/06/15 02:40:57;;;;;;;6.38;5.15;;;13.20;99.90;;;;;;5001536;28;20046;-85
2022/06/15 02:43:26;;;;;;;5.28;4.78;;;13.10;99.90;;;;;;5002286;28;20512;-85
2022/06/15 02:45:55;;;;;;;4.97;3.90;;;13.10;99.90;;;;;;5001074;28;20108;-85
2022/06/15 02:48:22;;;;;;;5.05;3.95;;;13.10;99.90;;;;;;5000793;28;20254;-85
2022/06/15 02:50:54;;;;;;;5.15;4.45;;;13.10;99.90;;;;;;5001469;28;20617;-85
2022/06/15 02:53:24;;;;;;;4.22;3.85;;;13.10;99.90;;;;;;5001588;28;20136;-84
2022/06/15 02:55:51;;;;;;;5.50;4.93;;;13.10;99.90;;;;;;5002088;28;20069;-86
2022/06/15 02:58:31;;;;;;;7.57;4.63;;;13.00;99.90;;;;;;4980711;28;20120;-85
2022/06/15 03:00:58;;;;;;;6.63;4.85;;;13.00;99.90;;;;;;4983065;28;20046;-85
2022/06/15 03:03:25;;;;;;;5.43;4.82;;;13.00;99.90;;;;;;4981310;28;20117;-86
2022/06/15 03:05:51;;;;;;;5.03;4.22;;;13.00;99.90;;;;;;4980932;28;20263;-84
2022/06/15 03:08:18;;;;;;;11.05;4.95;;;13.00;99.90;;;;;;4982013;28;20500;-85
2022/06/15 03:10:43;;;;;;;8.30;4.60;;;13.10;99.90;;;;;;4981205;28;20038;-85
2022/06/15 03:13:09;;;;;;;10.50;5.15;;;13.10;99.90;;;;;;4980931;28;20053;-85
2022/06/15 03:15:36;;;;;;;6.65;4.82;;;13.00;99.90;;;;;;4982221;28;20511;-86
2022/06/15 03:18:02;;;;;;;8.98;5.38;;;13.10;99.90;;;;;;4996067;28;20065;-86
2022/06/15 03:20:28;;;;;;;5.40;4.90;;;13.00;99.90;;;;;;4982678;28;20046;-85
2022/06/15 03:22:53;;;;;;;5.60;4.88;;;13.00;99.90;;;;;;4982330;28;20102;-85
2022/06/15 03:25:19;;;;;;;4.88;4.47;;;13.10;99.90;;;;;;4990355;28;20512;-84
2022/06/15 03:27:45;;;;;;;5.20;4.70;;;13.10;99.90;;;;;;5001545;28;20044;-86
2022/06/15 03:30:11;;;;;;;8.45;5.22;;;13.10;99.90;;;;;;5001045;28;20482;-86
2022/06/15 03:32:37;;;;;;;6.90;5.28;;;13.10;99.90;;;;;;5000656;28;20038;-86
2022/06/15 03:35:04;;;;;;;6.45;4.90;;;13.10;99.90;;;;;;4983911;28;20116;-86
2022/06/15 03:37:29;;;;;;;5.22;4.47;;;13.10;99.90;;;;;;5001707;28;20045;-85
2022/06/15 03:39:55;;;;;;;8.05;5.93;;;13.10;99.90;;;;;;5001605;28;20219;-86
2022/06/15 03:42:23;;;;;;;8.63;7.00;;;13.10;99.90;;;;;;5001132;28;20045;-87
2022/06/15 03:44:51;;;;;;;9.13;6.88;;;13.10;99.90;;;;;;4983808;28;20061;-86
2022/06/15 03:47:17;;;;;;;8.43;7.30;;;13.00;99.90;;;;;;4998862;28;20046;-87
2022/06/15 03:49:53;;;;;;;10.68;7.88;;;13.00;99.90;;;;;;5001053;28;20046;-86
2022/06/15 03:52:25;;;;;;;7.63;6.85;;;13.00;99.90;;;;;;4999925;28;20481;-85
2022/06/15 03:54:51;;;;;;;9.32;7.63;;;13.00;99.90;;;;;;5001615;28;20451;-85
2022/06/15 03:57:18;;;;;;;9.13;7.22;;;13.10;99.90;;;;;;5001057;28;20121;-86
2022/06/15 03:59:44;;;;;;;8.13;6.15;;;13.00;99.90;;;;;;4999897;28;20618;-86
2022/06/15 04:02:10;;;;;;;9.90;7.28;;;13.00;99.90;;;;;;5000114;28;20263;-86
2022/06/15 04:04:36;;;;;;;8.20;6.20;;;13.00;99.90;;;;;;4999541;28;20054;-87
2022/06/15 04:07:03;;;;;;;7.30;5.60;;;13.00;99.90;;;;;;4983143;28;20532;-86
2022/06/15 04:09:30;;;;;;;7.32;5.80;;;13.00;99.90;;;;;;5000172;28;20559;-86
2022/06/15 04:11:58;;;;;;;6.60;5.85;;;13.00;99.90;;;;;;5000117;28;20753;-86
2022/06/15 04:14:31;;;;;;;6.85;5.35;;;13.00;99.90;;;;;;5000788;28;20436;-85
2022/06/15 04:16:56;;;;;;;;;;;13.10;99.90;;;;;;5001044;28;20504;-85
2022/06/15 04:19:24;;;;;;;7.30;6.60;;;13.10;99.90;;;;;;4999388;28;19964;-85
2022/06/15 04:21:50;;;;;;;9.55;5.80;;;13.00;99.90;;;;;;5004144;28;20065;-85
2022/06/15 04:24:17;;;;;;;7.07;5.95;;;13.10;99.90;;;;;;5003519;28;20160;-86
2022/06/15 04:26:45;;;;;;;9.60;6.30;;;13.10;99.90;;;;;;5003534;28;20188;-85
2022/06/15 04:29:11;;;;;;;6.65;5.72;;;13.10;99.90;;;;;;5004304;28;20050;-85
2022/06/15 04:31:40;;;;;;;7.10;6.40;;;13.20;99.90;;;;;;5003962;28;20038;-87
2022/06/15 04:34:09;;;;;;;7.43;6.18;;;13.20;99.90;;;;;;5004749;28;20077;-87
2022/06/15 04:36:36;;;;;;;6.78;6.00;;;13.20;99.90;;;;;;5004857;28;20041;-85
2022/06/15 04:39:02;;;;;;;10.23;5.68;;;13.20;99.90;;;;;;5004189;28;20042;-85
2022/06/15 04:41:28;;;;;;;6.75;5.47;;;13.30;99.90;;;;;;5004877;28;20054;-86
2022/06/15 04:43:53;;;;;;;6.30;5.78;;;13.30;99.90;;;;;;5002992;28;20284;-85
2022/06/15 04:46:19;;;;;;;6.07;5.18;;;13.30;99.90;;;;;;5003486;28;20049;-87
2022/06/15 04:48:44;;;;;;;7.50;4.75;;;13.40;99.90;;;;;;5004428;28;20068;-86
2022/06/15 04:51:10;;;;;;;5.63;5.13;;;13.40;99.90;;;;;;4984244;28;20034;-86
2022/06/15 04:53:36;;;;;;;6.45;5.05;;;13.40;99.90;;;;;;4984946;28;20594;-86
2022/06/15 04:56:01;;;;;;;6.25;5.55;;;13.50;99.90;;;;;;4984612;28;20034;-85
2022/06/15 04:58:27;;;;;;;5.57;5.07;;;13.50;99.90;;;;;;4989031;28;20041;-85
2022/06/15 05:00:52;;;;;;;10.20;5.55;;;13.50;99.90;;;;;;5003625;28;20135;-87
2022/06/15 05:03:19;;;;;;;9.13;5.35;;;13.50;99.90;;;;;;5003720;28;20531;-85
2022/06/15 05:05:45;;;;;;;6.00;5.28;;;13.60;99.90;;;;;;5004274;28;20050;-86
2022/06/15 05:08:11;;;;;;;6.32;5.70;;;13.60;99.90;;;;;;5003943;28;20499;-86
2022/06/15 05:10:37;;;;;;;8.13;6.10;;;13.70;99.90;;;;;;5002419;28;20208;-86
2022/06/15 05:13:03;;;;;;;7.85;5.30;;;13.70;99.90;;;;;;5004047;28;20655;-84
2022/06/15 05:15:29;;;;;;;6.13;5.25;;;13.70;99.90;;;;;;5004057;28;20053;-87
2022/06/15 05:17:54;;;;;;;7.25;5.82;;;13.80;99.90;;;;;;5002700;28;20432;-86
2022/06/15 05:20:20;;;;;;;6.50;5.40;;;13.80;99.90;;;;;;5003480;28;20987;-86
2022/06/15 05:22:53;;;;;;;7.45;4.70;;;13.80;99.90;;;;;;5003423;28;20184;-87
2022/06/15 05:25:20;;;;;;;7.47;4.43;;;13.80;99.90;;;;;;5002448;28;20108;-88
2022/06/15 05:27:45;;;;;;;6.30;3.97;;;13.90;99.90;;;;;;5003474;28;20052;-87
2022/06/15 05:30:11;;;;;;;5.25;4.28;;;13.90;99.90;;;;;;5002904;28;20384;-87
2022/06/15 05:32:37;;;;;;;6.00;4.80;;;14.00;99.90;;;;;;5001723;28;20076;-87
2022/06/15 05:35:03;;;;;;;4.43;4.00;;;14.00;99.90;;;;;;5001352;28;20058;-87
2022/06/15 05:37:30;;;;;;;5.88;4.03;;;14.00;99.90;;;;;;5003614;28;20041;-87
2022/06/15 05:39:56;;;;;;;4.22;3.45;;;14.10;99.90;;;;;;5003819;28;20073;-87
2022/06/15 05:42:35;;;;;;;4.38;3.45;;;14.10;99.90;;;;;;4997877;28;20057;-87
2022/06/15 05:45:02;;;;;;;7.13;4.53;;;14.10;99.90;;;;;;4996135;28;20078;-81
2022/06/15 05:47:28;;;;;;;6.05;4.43;;;14.20;99.90;;;;;;5000986;28;20485;-88
2022/06/15 05:49:53;;;;;;;4.15;3.67;;;14.20;99.90;;;;;;5002436;28;20100;-87
2022/06/15 05:52:20;;;;;;;4.68;4.18;;;14.20;99.90;;;;;;5002788;28;20501;-86
2022/06/15 05:54:45;;;;;;;4.95;4.13;;;14.30;99.90;;;;;;5001807;28;20449;-87
2022/06/15 05:57:16;;;;;;;4.07;3.60;;;14.30;99.90;;;;;;5001624;28;20037;-80
2022/06/15 05:59:42;;;;;;;3.88;3.47;;;14.30;99.90;;;;;;5004673;28;20042;-87
2022/06/15 06:02:10;;;;;;;5.22;4.22;;;14.40;99.90;;;;;;5001772;28;20133;-89
2022/06/15 06:04:35;;;;;;;5.70;4.20;;;14.40;99.90;;;;;;5003024;28;20096;-83
2022/06/15 06:07:01;;;;;;;3.60;3.30;;;14.50;99.90;;;;;;5000289;28;20049;-83
2022/06/15 06:09:28;;;;;;;5.28;3.78;;;14.50;99.90;;;;;;4997209;28;20451;-83
2022/06/15 06:11:54;;;;;;;3.20;2.97;;;14.50;99.90;;;;;;4982313;28;20042;-85
2022/06/15 06:14:20;;;;;;;5.53;5.03;;;14.60;99.90;;;;;;5002122;28;20085;-83
2022/06/15 06:16:45;;;;;;;5.68;3.78;;;14.60;99.90;;;;;;5002028;28;20084;-87
2022/06/15 06:19:11;;;;;;;6.07;3.67;;;14.70;99.90;;;;;;5001878;28;20041;-88
2022/06/15 06:21:37;;;;;;;7.63;4.15;;;14.70;99.90;;;;;;5000933;28;20125;-87
2022/06/15 06:24:03;;;;;;;3.50;3.28;;;14.70;99.90;;;;;;5014338;28;20041;-81
2022/06/15 06:26:35;;;;;;;4.18;3.53;;;14.70;99.90;;;;;;5021279;28;20120;-83
2022/06/15 06:29:01;;;;;;;6.78;3.70;;;14.80;99.90;;;;;;4985019;28;20092;-81
2022/06/15 06:31:27;;;;;;;5.82;3.65;;;14.80;99.90;;;;;;5001722;28;20048;-79
2022/06/15 06:33:53;;;;;;;4.60;3.45;;;14.90;99.90;;;;;;5000526;28;20125;-80
2022/06/15 06:36:32;;;;;;;3.95;3.40;;;14.90;99.90;;;;;;5000621;28;20568;-82
2022/06/15 06:39:00;;;;;;;3.42;3.15;;;14.90;99.90;;;;;;5001225;28;20136;-81
2022/06/15 06:41:28;;;;;;;4.78;3.10;;;15.00;99.90;;;;;;5001423;28;20151;-83
2022/06/15 06:43:54;;;;;;;4.53;3.47;;;15.00;99.90;;;;;;5002398;28;20045;-82
2022/06/15 06:46:20;;;;;;;3.17;2.88;;;15.00;99.90;;;;;;5000714;28;20042;-81
2022/06/15 06:48:46;;;;;;;3.35;2.88;;;15.00;99.90;;;;;;5002459;28;20121;-82
2022/06/15 06:51:12;;;;;;;6.55;3.50;;;15.10;99.90;;;;;;5000043;28;20041;-84
2022/06/15 06:53:38;;;;;;;3.10;2.70;;;15.10;99.90;;;;;;5000734;28;20043;-81
2022/06/15 06:56:06;;;;;;;7.93;2.97;;;15.10;99.90;;;;;;5000358;28;20046;-84
2022/06/15 06:58:32;;;;;;;4.60;3.38;;;15.10;99.90;;;;;;4984827;28;20046;-84
2022/06/15 07:00:58;;;;;;;3.33;2.80;;;15.10;99.90;;;;;;5001496;28;20042;-85
2022/06/15 07:03:24;;;;;;;2.85;2.65;;;15.10;99.90;;;;;;4999762;28;20438;-84
2022/06/15 07:05:49;;;;;;;4.63;2.85;;;15.20;99.90;;;;;;5002389;28;20089;-83
2022/06/15 07:08:15;;;;;;;3.40;2.65;;;15.20;99.90;;;;;;5003438;28;20507;-82
2022/06/15 07:10:42;;;;;;;4.18;2.95;;;15.20;99.90;;;;;;5002805;28;20377;-83
2022/06/15 07:13:08;;;;;;;5.95;4.05;;;15.30;99.90;;;;;;5000226;28;20057;-81
2022/06/15 07:15:34;;;;;;;3.00;2.55;;;15.30;99.90;;;;;;5000401;28;20030;-82
2022/06/15 07:18:03;;;;;;;5.18;2.72;;;15.30;99.90;;;;;;5002863;28;20416;-81
2022/06/15 07:20:33;;;;;;;3.25;2.50;;;15.30;99.90;;;;;;5000075;28;20050;-81
2022/06/15 07:22:59;;;;;;;4.95;2.78;;;15.30;99.90;;;;;;5002461;28;20074;-84
2022/06/15 07:25:25;;;;;;;5.53;2.10;;;15.40;99.90;;;;;;5001603;28;20508;-85
2022/06/15 07:27:51;;;;;;;3.80;2.67;;;15.40;99.90;;;;;;4999693;28;20559;-88
2022/06/15 07:30:21;;;;;;;2.10;1.92;;;15.50;99.90;;;;;;5001663;28;20694;-81
2022/06/15 07:32:47;;;;;;;4.72;2.28;;;15.50;99.90;;;;;;5000569;28;20373;-81
2022/06/15 07:35:24;;;;;;;3.50;2.53;;;15.50;99.90;;;;;;4999468;28;20041;-83
2022/06/15 07:37:51;;;;;;;2.67;2.47;;;15.60;99.90;;;;;;5001793;28;20096;-82
2022/06/15 07:40:17;;;;;;;5.43;2.25;;;15.60;99.90;;;;;;5000507;28;20053;-82
2022/06/15 07:42:45;;;;;;;6.15;2.97;;;15.70;99.90;;;;;;5001627;28;20444;-82
2022/06/15 07:45:11;;;;;;;2.78;2.47;;;15.70;99.90;;;;;;4999625;28;20258;-81
2022/06/15 07:50:21;;;;;;;4.60;2.45;;;15.80;99.90;;;;;;4999859;28;20657;-81
2022/06/15 07:52:50;;;;;;;3.45;2.25;;;15.80;99.90;;;;;;4999800;28;20235;-81
2022/06/15 07:55:23;;;;;;;4.22;2.15;;;15.80;99.90;;;;;;5001240;28;20409;-81
2022/06/15 07:57:49;;;;;;;4.82;2.60;;;15.80;99.90;;;;;;5005618;28;20050;-82
2022/06/15 08:00:16;;;;;;;5.53;2.35;;;15.90;99.90;;;;;;4988568;28;20104;-81
2022/06/15 08:02:42;;;;;;;2.70;2.38;;;15.90;99.90;;;;;;5006288;28;20042;-82
2022/06/15 08:05:08;;;;;;;5.40;2.97;;;16.00;99.90;;;;;;5005789;28;20137;-82
2022/06/15 08:07:35;;;;;;;12.35;2.47;;;15.90;99.90;;;;;;5005351;28;20042;-83
2022/06/15 08:10:01;;;;;;;1.70;1.58;;;16.00;99.90;;;;;;5005829;28;20054;-83
2022/06/15 08:12:28;;;;;;;2.30;2.10;;;16.00;99.90;;;;;;5006712;28;20135;-83
2022/06/15 08:14:57;;;;;;;2.58;2.38;;;16.00;99.90;;;;;;5006473;28;20057;-83
2022/06/15 08:17:38;;;;;;;2.95;2.47;;;16.00;99.90;;;;;;5004732;28;20045;-79
2022/06/15 08:20:10;;;;;;;8.87;2.90;;;16.10;99.90;;;;;;5003512;28;20096;-79
2022/06/15 08:22:40;;;;;;;6.78;2.50;;;16.10;99.90;;;;;;5003438;28;20045;-78
2022/06/15 08:25:08;;;;;;;3.17;1.50;;;16.10;99.90;;;;;;5005449;28;20042;-79
2022/06/15 08:27:35;;;;;;;3.08;2.35;;;16.20;99.90;;;;;;5006413;28;20038;-83
2022/06/15 08:30:03;;;;;;;5.63;2.03;;;16.20;99.90;;;;;;5006659;28;20042;-79
2022/06/15 08:32:28;;;;;;;1.25;1.15;;;16.20;99.90;;;;;;5003722;28;20034;-78
2022/06/15 08:34:54;;;;;;;6.03;1.73;;;16.20;99.90;;;;;;5005833;28;20092;-77
2022/06/15 08:37:19;;;;;;;2.40;2.20;;;16.30;99.90;;;;;;5005720;28;20048;-78
2022/06/15 08:39:45;;;;;;;2.22;1.73;;;16.30;99.90;;;;;;5004229;28;20041;-77
2022/06/15 08:42:32;;;;;;;1.95;1.73;;;16.30;99.90;;;;;;5005470;28;20515;-77
2022/06/15 08:45:33;;;;;;;1.75;1.65;;;16.40;99.90;;;;;;5005679;28;20049;-77
2022/06/15 08:48:20;;;;;;;4.32;1.92;;;16.40;99.90;;;;;;5004595;28;20042;-78
2022/06/15 08:50:56;;;;;;;1.77;1.17;;;16.50;99.90;;;;;;5005018;28;20863;-78
2022/06/15 08:53:40;;;;;;;2.22;1.08;;;16.50;99.90;;;;;;4988300;28;20049;-79
2022/06/15 08:56:16;;;;;;;2.17;1.33;;;16.50;99.90;;;;;;5005086;28;20126;-77
2022/06/15 08:58:56;;;;;;;8.07;1.73;;;16.60;99.90;;;;;;5020475;28;20511;-82
2022/06/15 09:01:42;;;;;;;2.75;1.73;;;16.70;99.90;;;;;;5001838;28;20164;-82
2022/06/15 09:04:42;;;;;;;2.92;2.13;;;16.70;99.90;;;;;;4994865;28;20569;-82
2022/06/15 09:07:20;;;;;;;4.60;2.20;;;16.70;99.90;;;;;;4984116;28;20062;-81
2022/06/15 09:10:17;;;;;;;1.40;1.30;;;16.80;99.90;;;;;;5001340;28;20129;-83
2022/06/15 09:13:01;;;;;;;2.55;1.85;;;16.80;99.90;;;;;;5001126;28;20038;-82
2022/06/15 09:15:47;;;;;;;3.53;1.83;;;16.70;99.90;;;;;;5000863;28;20045;-82
2022/06/15 09:18:20;;;;;;;8.13;1.83;;;16.70;99.90;;;;;;4996242;28;20141;-84
2022/06/15 09:21:15;;;;;;;1.85;1.60;;;16.70;99.90;;;;;;5001945;28;20511;-83
2022/06/15 09:23:46;;;;;;;3.78;1.35;;;16.70;99.90;;;;;;5000726;28;20140;-82
2022/06/15 09:26:19;;;;;;;2.50;1.73;;;16.80;99.90;;;;;;4999567;28;20052;-82
2022/06/15 09:28:57;;;;;;;2.05;1.45;;;16.80;99.90;;;;;;5000939;28;20050;-83
2022/06/15 09:31:29;;;;;;;3.30;2.03;;;16.80;99.90;;;;;;4999880;28;20073;-84
2022/06/15 09:34:04;;;;;;;2.53;1.30;;;16.90;99.90;;;;;;5004058;28;20070;-82
2022/06/15 09:36:37;;;;;;;4.55;1.50;;;16.90;99.90;;;;;;4999782;28;20041;-84
2022/06/15 09:39:04;;;;;;;5.50;1.58;;;17.00;99.90;;;;;;5002332;28;20077;-83
2022/06/15 09:41:46;;;;;;;3.75;1.65;;;17.00;99.90;;;;;;4999970;28;20176;-86
2022/06/15 09:44:32;;;;;;;1.88;1.42;;;17.10;99.90;;;;;;4998521;28;20518;-85
2022/06/15 09:47:16;;;;;;;2.45;1.67;;;17.10;99.90;;;;;;4982395;28;20075;-81
2022/06/15 09:50:06;;;;;;;2.20;1.90;;;17.20;99.90;;;;;;5000288;28;20650;-85
2022/06/15 09:53:12;;;;;;;1.50;1.40;;;17.20;99.90;;;;;;5000013;28;20041;-86
2022/06/15 09:55:41;;;;;;;3.15;1.95;;;17.30;99.90;;;;;;5000341;28;20077;-80
2022/06/15 09:58:14;;;;;;;1.98;1.50;;;17.30;99.90;;;;;;5001252;28;20041;-84
2022/06/15 10:00:41;;;;;;;1.08;1.00;;;17.30;99.90;;;;;;4999257;28;20397;-85
2022/06/15 10:03:16;;;;;;;1.40;1.30;;;17.40;99.90;;;;;;5007867;28;20044;-83
2022/06/15 10:05:48;;;;;;;1.85;1.58;;;17.40;99.90;;;;;;4983167;28;20160;-86
2022/06/15 10:08:15;;;;;;;1.88;1.50;;;17.50;99.90;;;;;;4999277;28;20049;-80
2022/06/15 10:10:48;;;;;;;3.33;1.50;;;17.50;99.90;;;;;;5001488;28;20034;-82
2022/06/15 10:13:19;;;;;;;2.88;1.55;;;17.50;99.90;;;;;;4998792;28;20097;-80
2022/06/15 10:15:50;;;;;;;3.42;1.85;;;17.60;99.90;;;;;;4998971;28;20056;-86
2022/06/15 10:18:18;;;;;;;1.50;1.40;;;17.50;99.90;;;;;;5001885;28;20053;-86
2022/06/15 10:20:54;;;;;;;3.15;1.25;;;17.50;99.90;;;;;;5000507;28;20070;-84
2022/06/15 10:23:30;;;;;;;1.48;1.38;;;17.50;99.90;;;;;;5002352;28;20052;-84
2022/06/15 10:25:56;;;;;;;1.90;1.77;;;17.50;99.90;;;;;;5001454;28;20096;-84
2022/06/15 10:28:26;;;;;;;5.50;2.22;;;17.50;99.90;;;;;;5000697;28;20377;-84
2022/06/15 10:30:55;;;;;;;4.68;2.08;;;17.50;99.90;;;;;;5001221;28;20038;-83
2022/06/15 10:33:21;;;;;;;1.50;1.27;;;17.50;99.90;;;;;;5000773;28;20057;-83
2022/06/15 10:35:56;;;;;;;2.60;1.85;;;17.60;99.90;;;;;;5000849;28;20060;-82
2022/06/15 10:38:22;;;;;;;1.60;1.50;;;17.60;99.90;;;;;;5002021;28;20751;-82
2022/06/15 10:43:46;;;;;;;2.83;1.88;;;17.70;99.90;;;;;;4990177;28;20209;-84
2022/06/15 10:46:12;;;;;;;2.47;2.10;;;17.80;99.90;;;;;;4994922;28;20355;-85
2022/06/15 10:48:43;;;;;;;2.47;1.88;;;17.90;99.90;;;;;;4999792;28;20530;-86
2022/06/15 10:51:29;;;;;;;6.07;1.73;;;17.90;99.90;;;;;;5002782;28;20042;-82
2022/06/15 11:02:06;;;;;;;2.03;1.83;;;17.90;99.90;;;;;;4986793;28;20042;-84
2022/06/15 11:03:19;;;;;;;1.98;1.58;;;17.90;99.90;;;;;;5000668;28;20073;-86
2022/06/15 11:05:51;;;;;;;2.13;1.70;;;18.00;99.90;;;;;;4996684;28;20585;-84
2022/06/15 11:08:18;;;;;;;;;;;18.00;99.90;;;;;;5001911;28;20057;-88
2022/06/15 11:10:48;;;;;;;5.47;1.88;;;18.00;99.90;;;;;;5000880;28;19971;-81
2022/06/15 11:13:19;;;;;;;2.22;1.98;;;18.00;99.90;;;;;;5013028;28;20077;-86
2022/06/15 11:18:38;;;;;;;1.67;1.58;;;18.10;99.90;;;;;;5033189;28;20053;-79
2022/06/15 11:21:18;;;;;;;3.67;1.48;;;18.10;99.90;;;;;;4999364;28;20096;-81
2022/06/15 11:24:10;;;;;;;3.00;2.70;;;18.20;99.90;;;;;;4997736;28;20073;-82
2022/06/15 11:26:57;;;;;;;2.03;1.60;;;18.20;99.90;;;;;;5001408;28;20496;-83
2022/06/15 11:29:52;;;;;;;3.13;1.92;;;18.20;99.90;;;;;;5000327;28;20046;-82
2022/06/15 11:32:40;;;;;;;2.38;2.17;;;18.30;99.90;;;;;;4983096;28;20069;-89
2022/06/15 11:35:26;;;;;;;1.85;1.58;;;18.30;99.90;;;;;;5000911;28;20061;-90
2022/06/15 11:38:06;;;;;;;3.53;1.77;;;18.40;99.90;;;;;;5001299;28;20048;-89
2022/06/15 11:40:35;;;;;;;2.08;1.40;;;18.50;99.90;;;;;;5001338;28;20056;-88
2022/06/15 11:43:16;;;;;;;2.90;1.70;;;18.50;99.90;;;;;;4995941;28;20038;-88
2022/06/15 11:46:08;;;;;;;3.03;1.70;;;18.50;99.90;;;;;;4997635;28;20129;-84
2022/06/15 11:48:55;;;;;;;3.00;1.85;;;18.50;99.90;;;;;;4999328;28;20072;-84
2022/06/15 11:51:58;;;;;;;2.53;1.75;;;18.50;99.90;;;;;;4998634;28;20152;-86
2022/06/15 11:54:56;;;;;;;4.80;1.77;;;18.50;99.90;;;;;;4998127;28;20049;-84
2022/06/15 11:57:37;;;;;;;2.42;1.52;;;18.60;99.90;;;;;;4995600;28;20397;-87
2022/06/15 12:00:19;;;;;;;1.70;1.45;;;18.60;99.90;;;;;;4994029;28;20041;-86
2022/06/15 12:03:18;;;;;;;5.10;2.13;;;18.70;99.90;;;;;;5000219;28;20077;-86
2022/06/15 12:05:49;;;;;;;2.40;2.15;;;18.60;99.90;;;;;;4979759;28;20045;-85
2022/06/15 12:08:51;;;;;;;3.75;1.88;;;18.60;99.90;;;;;;4994564;28;20073;-86
2022/06/15 12:14:41;;;;;;;4.43;1.67;;;18.60;99.90;;;;;;4998432;28;20133;-87
2022/06/15 12:17:15;;;;;;;1.92;1.65;;;18.70;99.90;;;;;;4971102;28;20049;-86
2022/06/15 12:20:12;;;;;;;1.70;1.60;;;18.70;99.90;;;;;;4997760;28;20121;-85
2022/06/15 12:23:03;;;;;;;1.95;1.73;;;18.70;99.90;;;;;;4997679;28;20377;-85
2022/06/15 12:25:45;;;;;;;2.92;1.50;;;18.80;99.90;;;;;;4997237;28;20073;-88
2022/06/15 12:28:29;;;;;;;1.17;1.08;;;18.80;99.90;;;;;;4996769;28;20471;-89
2022/06/15 12:31:00;;;;;;;4.45;1.65;;;18.80;99.90;;;;;;5000776;28;20156;-88
2022/06/15 12:33:47;;;;;;;2.90;1.67;;;18.80;99.90;;;;;;5002691;28;20882;-86
2022/06/15 12:36:30;;;;;;;1.58;1.45;;;18.80;99.90;;;;;;5008995;28;20054;-86
2022/06/15 12:39:11;;;;;;;1.73;1.63;;;18.80;99.90;;;;;;4996215;28;20049;-84
2022/06/15 12:45:15;;;;;;;2.08;1.90;;;18.90;99.90;;;;;;5036593;28;20111;-85
2022/06/15 12:47:46;;;;;;;3.45;1.90;;;19.00;99.90;;;;;;4997626;28;20859;-84
2022/06/15 12:50:24;;;;;;;1.88;1.65;;;19.00;99.90;;;;;;5002174;28;20053;-85
2022/06/15 12:53:02;;;;;;;2.03;1.88;;;19.00;99.90;;;;;;5002117;28;20050;-86
2022/06/15 12:55:45;;;;;;;5.28;1.50;;;19.00;99.90;;;;;;4985291;28;20494;-86
2022/06/15 12:58:36;;;;;;;1.75;1.65;;;19.00;99.90;;;;;;5002560;28;20042;-87
2022/06/15 13:01:13;;;;;;;2.38;1.95;;;19.00;99.90;;;;;;5001622;28;20078;-87
2022/06/15 13:03:58;;;;;;;2.13;1.92;;;19.00;99.90;;;;;;5002759;28;20050;-87
2022/06/15 13:06:32;;;;;;;1.90;1.67;;;19.00;99.90;;;;;;5015601;28;20054;-86
2022/06/15 13:09:08;;;;;;;1.63;1.52;;;19.00;99.90;;;;;;5021725;28;20375;-87
2022/06/15 13:11:51;;;;;;;1.33;1.23;;;19.10;99.90;;;;;;5022809;28;20041;-88
2022/06/15 13:14:20;;;;;;;1.98;1.73;;;19.10;99.90;;;;;;5022081;28;20124;-88
2022/06/15 13:17:11;;;;;;;3.13;1.38;;;19.20;99.90;;;;;;5021685;28;20038;-89
2022/06/15 13:19:47;;;;;;;2.75;1.38;;;19.20;99.90;;;;;;5022437;28;20121;-87
2022/06/15 13:22:21;;;;;;;3.83;1.85;;;19.20;99.90;;;;;;5020571;28;20385;-77
2022/06/15 13:24:47;;;;;;;2.05;1.58;;;19.20;99.90;;;;;;5022518;28;20045;-88
2022/06/15 13:27:28;;;;;;;4.25;1.67;;;19.20;99.90;;;;;;5022169;28;20071;-86
2022/06/15 13:30:30;;;;;;;2.30;1.40;;;19.10;99.90;;;;;;5022026;28;20056;-89
2022/06/15 13:33:04;;;;;;;1.90;1.70;;;19.10;99.90;;;;;;5021466;28;20037;-89
2022/06/15 13:35:45;;;;;;;2.03;1.33;;;19.10;99.90;;;;;;5020811;28;20045;-88
2022/06/15 13:38:20;;;;;;;1.85;1.38;;;19.20;99.90;;;;;;5020567;28;20046;-88